createdAt,value
2018-10-17T00:01:59.399Z,15.47
2018-10-17T00:04:30.585Z,15.20
2018-10-17T00:07:01.817Z,15.63
2018-10-17T00:09:32.614Z,15.30
2018-10-17T00:12:03.554Z,14.93
2018-10-17T00:14:34.486Z,14.57
2018-10-17T00:17:05.895Z,14.13
2018-10-17T00:19:37.043Z,13.93
2018-10-17T00:22:08.455Z,13.30
2018-10-17T00:24:39.335Z,14.37
2018-10-17T00:27:10.250Z,13.13
2018-10-17T00:29:41.244Z,14.07
2018-10-17T00:32:12.198Z,14.30
2018-10-17T00:34:43.058Z,14.90
2018-10-17T00:37:14.027Z,14.93
2018-10-17T00:39:44.856Z,14.53
2018-10-17T00:42:15.760Z,15.20
2018-10-17T00:44:46.655Z,16.50
2018-10-17T00:47:17.600Z,15.23
2018-10-17T00:49:48.497Z,15.83
2018-10-17T00:52:19.458Z,15.63
2018-10-17T00:54:50.299Z,15.83
2018-10-17T00:57:21.196Z,15.07
2018-10-17T00:59:52.157Z,15.13
2018-10-17T01:02:23.080Z,15.07
2018-10-17T01:04:53.916Z,16.07
2018-10-17T01:07:24.843Z,15.60
2018-10-17T01:09:55.988Z,13.97
2018-10-17T01:12:26.874Z,15.60
2018-10-17T01:14:57.736Z,15.27
2018-10-17T01:17:28.639Z,15.20
2018-10-17T01:19:59.485Z,15.17
2018-10-17T01:22:30.348Z,14.60
2018-10-17T01:25:01.255Z,14.57
2018-10-17T01:27:32.136Z,14.77
2018-10-17T01:30:02.949Z,15.33
2018-10-17T01:32:33.908Z,15.60
2018-10-17T01:35:05.417Z,15.83
2018-10-17T01:37:36.370Z,15.77
2018-10-17T01:40:08.388Z,15.73
2018-10-17T01:42:39.296Z,15.40
2018-10-17T01:45:10.715Z,15.40
2018-10-17T01:47:41.611Z,15.37
2018-10-17T01:50:15.575Z,14.80
2018-10-17T01:52:46.555Z,15.33
2018-10-17T01:55:17.543Z,15.43
2018-10-17T01:57:48.557Z,15.93
2018-10-17T02:00:19.583Z,15.67
2018-10-17T02:02:50.571Z,15.57
2018-10-17T02:05:21.435Z,15.87
2018-10-17T02:07:52.376Z,15.47
2018-10-17T02:10:23.251Z,15.00
2018-10-17T02:12:54.328Z,15.20
2018-10-17T02:15:25.321Z,15.30
2018-10-17T02:17:56.234Z,16.00
2018-10-17T02:20:27.594Z,16.40
2018-10-17T02:22:58.508Z,16.10
2018-10-17T02:25:29.536Z,16.00
2018-10-17T02:28:00.562Z,15.77
2018-10-17T02:30:31.426Z,15.40
2018-10-17T02:33:02.336Z,15.63
2018-10-17T02:35:33.188Z,15.13
2018-10-17T02:38:04.078Z,16.60
2018-10-17T02:40:34.968Z,16.17
2018-10-17T02:43:06.031Z,16.03
2018-10-17T02:45:36.891Z,15.40
2018-10-17T02:48:07.819Z,17.67
2018-10-17T02:50:38.702Z,16.43
2018-10-17T02:53:09.853Z,15.87
2018-10-17T02:55:40.632Z,15.80
2018-10-17T02:58:11.496Z,16.20
2018-10-17T03:00:42.403Z,15.20
2018-10-17T03:03:13.478Z,15.87
2018-10-17T03:05:44.363Z,15.10
2018-10-17T03:08:15.267Z,16.13
2018-10-17T03:10:46.116Z,17.57
2018-10-17T03:13:17.088Z,16.27
2018-10-17T03:15:47.908Z,17.40
2018-10-17T03:18:18.864Z,16.37
2018-10-17T03:20:49.716Z,17.47
2018-10-17T03:23:20.843Z,15.63
2018-10-17T03:25:51.820Z,16.70
2018-10-17T03:28:23.098Z,17.17
2018-10-17T03:30:54.041Z,16.30
2018-10-17T03:33:25.055Z,15.60
2018-10-17T03:35:56.058Z,15.57
2018-10-17T03:38:27.052Z,16.27
2018-10-17T03:40:58.054Z,16.30
2018-10-17T03:43:29.036Z,15.83
2018-10-17T03:45:59.999Z,15.40
2018-10-17T03:48:31.011Z,17.60
2018-10-17T03:51:01.939Z,16.53
2018-10-17T03:53:32.962Z,16.53
2018-10-17T03:56:04.220Z,16.03
2018-10-17T03:58:35.240Z,16.40
2018-10-17T04:01:06.538Z,15.83
2018-10-17T04:03:37.487Z,16.90
2018-10-17T04:06:08.350Z,15.33
2018-10-17T04:08:39.279Z,16.83
2018-10-17T04:11:10.227Z,16.63
2018-10-17T04:13:41.194Z,16.63
2018-10-17T04:16:12.127Z,17.03
2018-10-17T04:18:43.076Z,16.33
2018-10-17T04:21:13.965Z,16.90
2018-10-17T04:23:45.018Z,16.33
2018-10-17T04:26:15.931Z,16.93
2018-10-17T04:28:53.832Z,16.57
2018-10-17T04:31:24.732Z,16.10
2018-10-17T04:33:55.791Z,17.07
2018-10-17T04:36:26.689Z,17.17
2018-10-17T04:38:57.609Z,15.90
2018-10-17T04:41:28.584Z,15.47
2018-10-17T04:43:59.575Z,15.77
2018-10-17T04:46:30.492Z,16.77
2018-10-17T04:49:01.469Z,15.60
2018-10-17T04:51:32.544Z,16.20
2018-10-17T04:54:03.555Z,16.20
2018-10-17T04:56:34.498Z,16.80
2018-10-17T04:59:05.534Z,17.50
2018-10-17T05:01:36.549Z,17.23
2018-10-17T05:04:07.836Z,16.43
2018-10-17T05:06:38.761Z,16.83
2018-10-17T05:09:11.578Z,17.27
2018-10-17T05:11:42.535Z,16.43
2018-10-17T05:14:13.494Z,17.87
2018-10-17T05:16:44.467Z,16.43
2018-10-17T05:19:15.503Z,16.77
2018-10-17T05:21:46.491Z,17.33
2018-10-17T05:24:17.521Z,17.17
2018-10-17T05:26:48.554Z,17.10
2018-10-17T05:29:19.616Z,17.27
2018-10-17T05:31:50.485Z,16.83
2018-10-17T05:34:21.886Z,17.33
2018-10-17T05:36:52.812Z,17.67
2018-10-17T05:39:23.682Z,17.57
2018-10-17T05:41:54.589Z,16.30
2018-10-17T05:44:25.599Z,16.73
2018-10-17T05:46:56.611Z,17.77
2018-10-17T05:49:27.487Z,17.47
2018-10-17T05:51:58.519Z,17.93
2018-10-17T05:54:29.419Z,17.60
2018-10-17T05:57:00.280Z,16.33
2018-10-17T05:59:31.724Z,17.30
2018-10-17T06:02:06.746Z,17.13
2018-10-17T06:04:37.821Z,16.57
2018-10-17T06:07:08.862Z,16.87
2018-10-17T06:09:40.445Z,18.60
2018-10-17T06:12:11.567Z,17.07
2018-10-17T06:14:42.609Z,16.97
2018-10-17T06:17:13.667Z,16.93
2018-10-17T06:19:44.601Z,16.67
2018-10-17T06:22:15.468Z,17.13
2018-10-17T06:24:46.507Z,16.10
2018-10-17T06:27:17.512Z,17.17
2018-10-17T06:29:48.491Z,16.13
2018-10-17T06:32:19.406Z,17.13
2018-10-17T06:34:50.489Z,15.50
2018-10-17T06:37:21.436Z,17.13
2018-10-17T06:39:52.371Z,16.00
2018-10-17T06:42:23.288Z,16.47
2018-10-17T06:44:54.299Z,16.60
2018-10-17T06:47:25.197Z,16.13
2018-10-17T06:49:56.142Z,16.30
2018-10-17T06:52:27.063Z,17.83
2018-10-17T06:54:58.209Z,16.47
2018-10-17T06:57:29.213Z,17.63
2018-10-17T07:00:00.799Z,15.60
2018-10-17T07:02:31.780Z,17.30
2018-10-17T07:05:02.874Z,16.83
2018-10-17T07:07:33.761Z,16.37
2018-10-17T07:10:04.767Z,17.30
2018-10-17T07:12:35.679Z,17.97
2018-10-17T07:15:07.788Z,17.30
2018-10-17T07:17:39.375Z,18.13
2018-10-17T07:20:10.719Z,17.53
2018-10-17T07:22:41.594Z,18.20
2018-10-17T07:25:12.685Z,18.53
2018-10-17T07:27:43.659Z,17.60
2018-10-17T07:30:14.622Z,17.97
2018-10-17T07:32:45.501Z,19.17
2018-10-17T07:35:16.509Z,18.50
2018-10-17T07:37:47.420Z,17.97
2018-10-17T07:40:18.391Z,17.73
2018-10-17T07:42:49.270Z,18.37
2018-10-17T07:45:20.244Z,18.47
2018-10-17T07:47:52.190Z,17.93
2018-10-17T07:50:23.302Z,17.97
2018-10-17T07:52:54.312Z,17.93
2018-10-17T07:55:25.268Z,16.63
2018-10-17T07:57:56.295Z,16.33
2018-10-17T08:00:27.468Z,17.47
2018-10-17T08:02:58.411Z,18.13
2018-10-17T08:05:29.353Z,16.83
2018-10-17T08:08:00.300Z,17.43
2018-10-17T08:10:31.884Z,16.33
2018-10-17T08:13:02.845Z,16.40
2018-10-17T08:15:33.808Z,16.90
2018-10-17T08:18:04.872Z,17.27
2018-10-17T08:20:35.819Z,17.10
2018-10-17T08:23:07.504Z,15.63
2018-10-17T08:25:38.441Z,16.03
2018-10-17T08:28:09.368Z,14.17
2018-10-17T08:30:40.278Z,14.50
2018-10-17T08:33:11.185Z,14.43
2018-10-17T08:35:42.304Z,14.47
2018-10-17T08:38:13.235Z,12.70
2018-10-17T08:40:45.080Z,13.50
2018-10-17T08:43:15.949Z,13.13
2018-10-17T08:45:46.962Z,12.60
2018-10-17T08:48:17.869Z,11.57
2018-10-17T08:50:48.984Z,12.30
2018-10-17T08:53:19.904Z,12.00
2018-10-17T08:55:50.826Z,11.83
2018-10-17T08:58:21.776Z,11.33
2018-10-17T09:00:52.701Z,11.47
2018-10-17T09:03:23.594Z,11.07
2018-10-17T09:05:58.974Z,10.87
2018-10-17T09:08:30.064Z,10.57
2018-10-17T09:11:01.036Z,10.57
2018-10-17T09:13:32.035Z,10.47
2018-10-17T09:16:06.029Z,10.73
2018-10-17T09:18:36.865Z,10.20
2018-10-17T09:21:08.189Z,10.20
2018-10-17T09:23:38.874Z,10.23
2018-10-17T09:26:09.888Z,10.63
2018-10-17T09:28:41.014Z,9.37
2018-10-17T09:31:12.067Z,9.10
2018-10-17T09:33:43.007Z,8.90
2018-10-17T09:36:14.003Z,9.33
2018-10-17T09:38:44.907Z,8.93
2018-10-17T09:41:15.864Z,8.90
2018-10-17T09:43:47.229Z,8.87
2018-10-17T09:46:18.260Z,9.20
2018-10-17T09:48:49.243Z,9.67
2018-10-17T09:51:20.268Z,8.47
2018-10-17T09:53:51.105Z,8.80
2018-10-17T09:56:22.019Z,8.60
2018-10-17T09:58:53.540Z,8.80
2018-10-17T10:01:29.699Z,9.03
2018-10-17T10:04:01.038Z,9.17
2018-10-17T10:06:32.010Z,8.33
2018-10-17T10:09:03.056Z,8.87
2018-10-17T10:11:34.080Z,8.80
2018-10-17T10:14:05.167Z,8.30
2018-10-17T10:16:36.522Z,7.97
2018-10-17T10:19:08.555Z,8.47
2018-10-17T10:21:39.695Z,8.77
2018-10-17T10:24:10.685Z,8.97
2018-10-17T10:26:41.600Z,8.73
2018-10-17T10:29:12.546Z,8.87
2018-10-17T10:31:43.556Z,8.53
2018-10-17T10:34:14.789Z,8.70
2018-10-17T10:36:45.823Z,8.57
2018-10-17T10:39:16.770Z,8.67
2018-10-17T10:41:47.713Z,8.23
2018-10-17T10:44:18.649Z,8.43
2018-10-17T10:46:50.068Z,7.77
2018-10-17T10:49:20.980Z,8.70
2018-10-17T10:51:52.039Z,8.17
2018-10-17T10:54:22.929Z,9.77
2018-10-17T10:56:53.938Z,9.03
2018-10-17T10:59:24.975Z,9.20
2018-10-17T11:01:55.857Z,8.73
2018-10-17T11:04:26.795Z,7.97
2018-10-17T11:06:57.862Z,8.33
2018-10-17T11:09:28.837Z,8.17
2018-10-17T11:11:59.792Z,8.00
2018-10-17T11:14:30.991Z,8.00
2018-10-17T11:17:02.031Z,8.23
2018-10-17T11:19:33.163Z,8.90
2018-10-17T11:22:04.497Z,8.63
2018-10-17T11:24:35.351Z,8.27
2018-10-17T11:27:06.730Z,8.97
2018-10-17T11:29:37.612Z,8.00
2018-10-17T11:32:08.791Z,8.93
2018-10-17T11:34:39.794Z,8.53
2018-10-17T11:37:10.825Z,7.60
2018-10-17T11:39:41.740Z,7.77
2018-10-17T11:42:12.801Z,8.00
2018-10-17T11:44:43.815Z,7.93
2018-10-17T11:47:15.128Z,8.23
2018-10-17T11:49:46.042Z,7.80
2018-10-17T11:52:17.142Z,8.30
2018-10-17T11:54:48.253Z,7.77
2018-10-17T11:57:19.381Z,7.90
2018-10-17T11:59:50.461Z,8.70
2018-10-17T12:02:21.381Z,8.23
2018-10-17T12:04:52.493Z,7.70
2018-10-17T12:07:23.362Z,7.50
2018-10-17T12:09:54.302Z,7.23
2018-10-17T12:12:25.364Z,8.00
2018-10-17T12:14:56.376Z,8.20
2018-10-17T12:17:27.305Z,8.57
2018-10-17T12:19:58.585Z,8.13
2018-10-17T12:22:29.666Z,8.43
2018-10-17T12:25:00.601Z,8.07
2018-10-17T12:27:31.620Z,8.23
2018-10-17T12:30:02.591Z,8.50
2018-10-17T12:32:33.579Z,7.63
2018-10-17T12:35:04.696Z,8.40
2018-10-17T12:37:36.579Z,8.20
2018-10-17T12:40:09.541Z,8.40
2018-10-17T12:42:40.482Z,8.33
2018-10-17T12:45:11.654Z,8.57
2018-10-17T12:47:42.553Z,8.20
2018-10-17T12:50:13.598Z,8.50
2018-10-17T12:52:44.635Z,8.20
2018-10-17T12:55:15.610Z,8.57
2018-10-17T12:57:46.624Z,8.57
2018-10-17T13:00:17.520Z,7.87
2018-10-17T13:02:48.571Z,7.40
2018-10-17T13:05:19.469Z,8.30
2018-10-17T13:07:50.468Z,7.63
2018-10-17T13:10:21.359Z,7.80
2018-10-17T13:12:52.465Z,7.83
2018-10-17T13:15:23.965Z,7.83
2018-10-17T13:17:54.988Z,7.60
2018-10-17T13:20:25.937Z,7.10
2018-10-17T13:22:56.976Z,7.23
2018-10-17T13:25:27.943Z,8.10
2018-10-17T13:27:58.946Z,7.67
2018-10-17T13:30:30.046Z,8.00
2018-10-17T13:33:01.176Z,7.83
2018-10-17T13:35:32.313Z,8.30
2018-10-17T13:38:03.388Z,8.37
2018-10-17T13:40:34.736Z,8.60
2018-10-17T13:43:05.926Z,8.37
2018-10-17T13:45:36.912Z,9.47
2018-10-17T13:48:08.084Z,9.20
2018-10-17T13:50:39.027Z,8.33
2018-10-17T13:53:10.480Z,8.60
2018-10-17T13:55:41.522Z,8.30
2018-10-17T13:58:12.774Z,7.83
2018-10-17T14:00:43.764Z,8.10
2018-10-17T14:03:14.788Z,8.40
2018-10-17T14:05:45.851Z,8.53
2018-10-17T14:08:16.930Z,8.87
2018-10-17T14:10:47.869Z,9.17
2018-10-17T14:13:18.968Z,9.17
2018-10-17T14:15:50.054Z,8.10
2018-10-17T14:18:21.127Z,8.30
2018-10-17T14:20:52.179Z,8.30
2018-10-17T14:23:23.294Z,8.10
2018-10-17T14:25:54.344Z,8.80
2018-10-17T14:28:25.645Z,8.30
2018-10-17T14:30:57.000Z,8.93
2018-10-17T14:33:28.070Z,8.77
2018-10-17T14:35:59.159Z,9.23
2018-10-17T14:38:30.158Z,8.47
2018-10-17T14:41:02.088Z,8.30
2018-10-17T14:43:33.165Z,8.20
2018-10-17T14:46:04.097Z,8.47
2018-10-17T14:48:35.160Z,7.57
2018-10-17T14:51:06.306Z,8.17
2018-10-17T14:53:37.359Z,8.70
2018-10-17T14:56:08.463Z,8.20
2018-10-17T14:58:39.530Z,8.70
2018-10-17T15:01:10.528Z,8.30
2018-10-17T15:03:41.633Z,9.20
2018-10-17T15:06:12.668Z,8.63
2018-10-17T15:08:43.661Z,8.57
2018-10-17T15:11:14.826Z,8.70
2018-10-17T15:13:45.777Z,8.47
2018-10-17T15:16:16.825Z,9.13
2018-10-17T15:18:47.833Z,8.47
2018-10-17T15:21:18.860Z,8.80
2018-10-17T15:23:49.832Z,8.87
2018-10-17T15:26:21.828Z,9.03
2018-10-17T15:28:52.844Z,9.60
2018-10-17T15:31:23.850Z,8.80
2018-10-17T15:33:54.770Z,8.60
2018-10-17T15:36:26.112Z,8.30
2018-10-17T15:38:57.113Z,9.20
2018-10-17T15:41:28.285Z,8.90
2018-10-17T15:43:59.319Z,9.00
2018-10-17T15:46:30.627Z,8.37
2018-10-17T15:49:01.621Z,8.03
2018-10-17T15:51:33.019Z,7.77
2018-10-17T15:54:04.213Z,7.97
2018-10-17T15:56:35.089Z,8.63
2018-10-17T15:59:06.153Z,9.50
2018-10-17T16:01:37.455Z,8.60
2018-10-17T16:04:08.544Z,8.17
2018-10-17T16:06:39.535Z,8.20
2018-10-17T16:09:12.952Z,7.43
2018-10-17T16:11:43.975Z,8.20
2018-10-17T16:14:15.431Z,9.37
2018-10-17T16:16:46.411Z,8.43
2018-10-17T16:19:17.546Z,8.60
2018-10-17T16:21:48.502Z,8.50
2018-10-17T16:24:19.614Z,8.33
2018-10-17T16:26:50.617Z,8.60
2018-10-17T16:29:21.764Z,7.83
2018-10-17T16:31:53.828Z,8.53
2018-10-17T16:34:25.239Z,8.80
2018-10-17T16:36:56.603Z,8.83
2018-10-17T16:39:27.711Z,8.97
2018-10-17T16:41:59.371Z,8.60
2018-10-17T16:44:31.532Z,7.93
2018-10-17T16:47:02.776Z,8.97
2018-10-17T16:49:35.024Z,8.67
2018-10-17T16:52:06.606Z,8.13
2018-10-17T16:54:37.680Z,9.00
2018-10-17T16:57:10.263Z,9.97
2018-10-17T16:59:41.345Z,9.30
2018-10-17T17:02:12.369Z,10.37
2018-10-17T17:04:43.452Z,10.10
2018-10-17T17:07:14.436Z,10.03
2018-10-17T17:09:45.517Z,10.63
2018-10-17T17:12:17.868Z,10.70
2018-10-17T17:14:49.901Z,12.00
2018-10-17T17:17:20.882Z,11.70
2018-10-17T17:19:52.339Z,11.67
2018-10-17T17:22:23.507Z,11.50
2018-10-17T17:24:54.543Z,12.00
2018-10-17T17:27:25.688Z,12.73
2018-10-17T17:29:56.752Z,12.47
2018-10-17T17:32:28.488Z,12.27
2018-10-17T17:34:59.461Z,11.87
2018-10-17T17:37:31.272Z,12.13
2018-10-17T17:40:02.368Z,11.77
2018-10-17T17:42:34.346Z,11.33
2018-10-17T17:45:05.684Z,12.37
2018-10-17T17:47:37.189Z,11.27
2018-10-17T17:50:09.276Z,11.43
2018-10-17T17:52:40.498Z,11.07
2018-10-17T17:55:11.648Z,10.87
2018-10-17T17:57:43.852Z,12.10
2018-10-17T18:00:22.336Z,12.03
2018-10-17T18:02:53.297Z,9.87
2018-10-17T18:05:25.523Z,10.23
2018-10-17T18:07:56.753Z,10.13
2018-10-17T18:10:27.838Z,12.07
2018-10-17T18:13:00.112Z,13.17
2018-10-17T18:15:31.091Z,13.07
2018-10-17T18:18:03.142Z,13.13
2018-10-17T18:20:34.536Z,13.30
2018-10-17T18:23:06.441Z,12.93
2018-10-17T18:25:37.717Z,12.37
2018-10-17T18:28:09.439Z,12.63
2018-10-17T18:30:41.405Z,12.83
2018-10-17T18:33:13.184Z,11.00
2018-10-17T18:35:44.394Z,12.10
2018-10-17T18:38:16.253Z,12.90
2018-10-17T18:40:47.326Z,12.83
2018-10-17T18:43:18.340Z,12.90
2018-10-17T18:45:49.682Z,12.30
2018-10-17T18:48:21.211Z,11.57
2018-10-17T18:50:52.962Z,12.17
2018-10-17T18:53:24.211Z,12.93
2018-10-17T18:55:55.864Z,11.87
2018-10-17T18:58:27.169Z,11.53
2018-10-17T19:00:58.704Z,12.93
2018-10-17T19:03:29.953Z,13.03
2018-10-17T19:06:01.161Z,13.97
2018-10-17T19:08:32.766Z,14.07
2018-10-17T19:11:04.531Z,14.00
2018-10-17T19:13:35.654Z,16.27
2018-10-17T19:16:07.110Z,15.17
2018-10-17T19:18:38.056Z,14.17
2018-10-17T19:21:15.979Z,14.33
2018-10-17T19:23:47.153Z,13.63
2018-10-17T19:26:18.793Z,12.50
2018-10-17T19:28:49.741Z,12.80
2018-10-17T19:31:20.959Z,12.67
2018-10-17T19:33:52.544Z,12.60
2018-10-17T19:36:24.084Z,12.70
2018-10-17T19:38:55.161Z,12.27
2018-10-17T19:41:26.271Z,12.03
2018-10-17T19:43:57.220Z,12.40
2018-10-17T19:46:29.160Z,12.33
2018-10-17T19:49:00.171Z,11.60
2018-10-17T19:51:31.539Z,11.10
2018-10-17T19:54:03.047Z,11.47
2018-10-17T19:56:35.341Z,10.53
2018-10-17T19:59:06.848Z,11.10
2018-10-17T20:01:38.342Z,10.67
2018-10-17T20:04:09.433Z,9.97
2018-10-17T20:06:40.418Z,10.23
2018-10-17T20:09:12.138Z,10.87
2018-10-17T20:11:43.479Z,10.60
2018-10-17T20:14:14.523Z,10.73
2018-10-17T20:16:45.565Z,11.67
2018-10-17T20:19:16.597Z,12.57
2018-10-17T20:21:47.732Z,11.50
2018-10-17T20:24:18.636Z,11.70
2018-10-17T20:26:49.711Z,11.97
2018-10-17T20:29:21.313Z,11.17
2018-10-17T20:31:52.355Z,10.73
2018-10-17T20:34:23.918Z,10.77
2018-10-17T20:36:55.072Z,10.37
2018-10-17T20:39:26.061Z,11.07
2018-10-17T20:41:56.986Z,10.67
2018-10-17T20:44:28.099Z,11.03
2018-10-17T20:46:59.351Z,10.80
2018-10-17T20:49:30.271Z,10.83
2018-10-17T20:52:01.217Z,10.80
2018-10-17T20:54:32.148Z,11.37
2018-10-17T20:57:03.247Z,10.90
2018-10-17T20:59:34.127Z,11.53
2018-10-17T21:02:05.216Z,11.50
2018-10-17T21:04:36.270Z,11.13
2018-10-17T21:07:07.291Z,10.87
2018-10-17T21:09:39.002Z,11.17
2018-10-17T21:12:09.940Z,12.67
2018-10-17T21:14:40.846Z,12.93
2018-10-17T21:17:11.809Z,12.97
2018-10-17T21:19:42.687Z,12.50
2018-10-17T21:22:13.625Z,12.07
2018-10-17T21:24:44.512Z,11.73
2018-10-17T21:27:15.484Z,12.97
2018-10-17T21:29:46.631Z,13.77
2018-10-17T21:32:17.629Z,13.73
2018-10-17T21:34:48.540Z,14.90
2018-10-17T21:37:19.572Z,14.53
2018-10-17T21:39:50.419Z,15.00
2018-10-17T21:42:21.367Z,12.73
2018-10-17T21:44:52.291Z,12.87
2018-10-17T21:47:23.380Z,13.00
2018-10-17T21:49:54.262Z,11.93
2018-10-17T21:52:25.190Z,11.40
2018-10-17T21:54:56.084Z,11.23
2018-10-17T21:57:27.312Z,10.50
2018-10-17T21:59:58.284Z,11.33
2018-10-17T22:02:29.194Z,11.20
2018-10-17T22:05:00.056Z,12.47
2018-10-17T22:07:31.032Z,12.17
2018-10-17T22:10:01.903Z,13.00
2018-10-17T22:12:32.952Z,12.27
2018-10-17T22:15:03.999Z,13.50
2018-10-17T22:17:35.139Z,12.70
2018-10-17T22:20:06.568Z,13.43
2018-10-17T22:22:37.510Z,14.07
2018-10-17T22:25:08.935Z,12.90
2018-10-17T22:27:40.155Z,13.30
2018-10-17T22:30:11.096Z,13.17
2018-10-17T22:32:42.031Z,12.07
2018-10-17T22:35:12.972Z,12.83
2018-10-17T22:37:43.944Z,12.77
2018-10-17T22:40:14.858Z,12.83
2018-10-17T22:42:45.851Z,12.27
2018-10-17T22:45:16.842Z,12.03
2018-10-17T22:47:47.801Z,12.87
2018-10-17T22:50:18.691Z,14.13
2018-10-17T22:52:49.620Z,13.47
2018-10-17T22:55:20.613Z,13.63
2018-10-17T22:57:51.532Z,15.77
2018-10-17T23:00:22.443Z,14.93
2018-10-17T23:02:53.415Z,15.57
2018-10-17T23:05:24.596Z,16.30
2018-10-17T23:07:55.613Z,16.30
2018-10-17T23:10:26.490Z,17.00
2018-10-17T23:12:57.423Z,15.60
2018-10-17T23:15:28.359Z,14.87
2018-10-17T23:17:59.446Z,15.37
2018-10-17T23:20:30.339Z,15.77
2018-10-17T23:23:01.335Z,15.90
2018-10-17T23:25:32.482Z,16.40
2018-10-17T23:28:03.433Z,15.63
2018-10-17T23:30:34.366Z,16.30
2018-10-17T23:33:05.270Z,16.70
2018-10-17T23:35:36.204Z,16.27
2018-10-17T23:38:07.297Z,16.07
2018-10-17T23:40:38.151Z,16.03
2018-10-17T23:43:10.137Z,16.27
2018-10-17T23:45:41.054Z,15.90
2018-10-17T23:48:12.110Z,15.57
2018-10-17T23:50:42.975Z,16.20
2018-10-17T23:53:13.916Z,16.00
2018-10-17T23:55:44.831Z,16.00
2018-10-17T23:58:15.802Z,16.37
